createdAt,value
2023-02-06T00:01:23.856Z,100.00
2023-02-06T00:03:50.435Z,100.00
2023-02-06T00:06:16.865Z,100.00
2023-02-06T00:08:43.631Z,100.00
2023-02-06T00:11:13.754Z,100.00
2023-02-06T00:13:40.170Z,100.00
2023-02-06T00:16:19.000Z,100.00
2023-02-06T00:18:45.566Z,100.00
2023-02-06T00:21:12.801Z,100.00
2023-02-06T00:23:39.505Z,100.00
2023-02-06T00:26:08.703Z,100.00
2023-02-06T00:28:35.290Z,100.00
2023-02-06T00:31:01.816Z,100.00
2023-02-06T00:33:28.264Z,100.00
2023-02-06T00:35:54.591Z,100.00
2023-02-06T00:38:21.009Z,100.00
2023-02-06T00:40:47.695Z,100.00
2023-02-06T00:43:14.152Z,100.00
2023-02-06T00:45:40.577Z,100.00
2023-02-06T00:48:09.018Z,100.00
2023-02-06T00:50:35.832Z,100.00
2023-02-06T00:53:02.208Z,100.00
2023-02-06T00:55:28.611Z,100.00
2023-02-06T00:57:54.945Z,100.00
2023-02-06T01:00:21.545Z,100.00
2023-02-06T01:02:48.121Z,100.00
2023-02-06T01:05:14.520Z,100.00
2023-02-06T01:07:41.010Z,100.00
2023-02-06T01:10:09.626Z,100.00
2023-02-06T01:12:37.056Z,100.00
2023-02-06T01:15:10.573Z,100.00
2023-02-06T01:17:38.713Z,100.00
2023-02-06T01:20:07.855Z,100.00
2023-02-06T01:22:35.315Z,100.00
2023-02-06T01:25:02.227Z,100.00
2023-02-06T01:27:28.946Z,100.00
2023-02-06T01:29:55.379Z,100.00
2023-02-06T01:32:21.746Z,100.00
2023-02-06T01:34:48.163Z,100.00
2023-02-06T01:37:14.598Z,100.00
2023-02-06T01:39:40.943Z,100.00
2023-02-06T01:42:07.387Z,100.00
2023-02-06T01:44:33.906Z,100.00
2023-02-06T01:47:00.353Z,100.00
2023-02-06T01:49:46.047Z,100.00
2023-02-06T01:52:17.641Z,100.00
2023-02-06T01:54:49.014Z,100.00
2023-02-06T01:57:16.569Z,100.00
2023-02-06T01:59:48.530Z,100.00
2023-02-06T02:02:15.181Z,100.00
2023-02-06T02:04:41.566Z,100.00
2023-02-06T02:07:15.442Z,100.00
2023-02-06T02:09:41.880Z,100.00
2023-02-06T02:12:08.306Z,100.00
2023-02-06T02:14:37.004Z,100.00
2023-02-06T02:17:30.586Z,100.00
2023-02-06T02:20:18.625Z,100.00
2023-02-06T02:23:03.634Z,100.00
2023-02-06T02:25:56.990Z,100.00
2023-02-06T02:28:47.626Z,100.00
2023-02-06T02:31:23.098Z,100.00
2023-02-06T02:34:14.391Z,100.00
2023-02-06T02:36:40.750Z,100.00
2023-02-06T02:39:25.871Z,100.00
2023-02-06T02:41:55.200Z,100.00
2023-02-06T02:44:34.122Z,100.00
2023-02-06T02:47:03.985Z,100.00
2023-02-06T02:49:34.300Z,100.00
2023-02-06T02:52:01.453Z,100.00
2023-02-06T02:54:28.702Z,100.00
2023-02-06T02:57:02.394Z,100.00
2023-02-06T02:59:36.400Z,100.00
2023-02-06T03:02:11.255Z,100.00
2023-02-06T03:04:44.783Z,100.00
2023-02-06T03:07:35.008Z,100.00
2023-02-06T03:10:19.558Z,100.00
2023-02-06T03:12:54.223Z,100.00
2023-02-06T03:15:35.793Z,100.00
2023-02-06T03:18:42.975Z,100.00
2023-02-06T03:21:13.633Z,100.00
2023-02-06T03:23:43.712Z,100.00
2023-02-06T03:26:14.927Z,100.00
2023-02-06T03:28:55.061Z,100.00
2023-02-06T03:31:28.567Z,100.00
2023-02-06T03:34:26.974Z,100.00
2023-02-06T03:36:53.594Z,100.00
2023-02-06T03:39:21.603Z,100.00
2023-02-06T03:41:49.521Z,100.00
2023-02-06T03:44:23.765Z,100.00
2023-02-06T03:46:52.080Z,100.00
2023-02-06T03:49:19.276Z,100.00
2023-02-06T03:51:59.318Z,100.00
2023-02-06T03:54:27.299Z,100.00
2023-02-06T03:56:56.496Z,100.00
2023-02-06T03:59:23.258Z,100.00
2023-02-06T04:01:55.047Z,100.00
2023-02-06T04:04:28.976Z,100.00
2023-02-06T04:07:00.156Z,100.00
2023-02-06T04:09:26.570Z,100.00
2023-02-06T04:11:53.021Z,100.00
2023-02-06T04:14:19.411Z,100.00
2023-02-06T04:16:45.808Z,100.00
2023-02-06T04:19:12.291Z,100.00
2023-02-06T04:21:38.635Z,100.00
2023-02-06T04:24:05.207Z,100.00
2023-02-06T04:26:31.664Z,100.00
2023-02-06T04:28:58.093Z,100.00
2023-02-06T04:31:24.568Z,100.00
2023-02-06T04:33:51.200Z,100.00
2023-02-06T04:36:17.539Z,100.00
2023-02-06T04:38:43.874Z,100.00
2023-02-06T04:41:10.644Z,100.00
2023-02-06T04:43:36.991Z,100.00
2023-02-06T04:46:03.634Z,100.00
2023-02-06T04:48:30.078Z,100.00
2023-02-06T04:50:56.464Z,100.00
2023-02-06T04:53:22.912Z,100.00
2023-02-06T04:55:49.335Z,100.00
2023-02-06T04:58:15.722Z,100.00
2023-02-06T05:00:42.075Z,100.00
2023-02-06T05:03:08.484Z,100.00
2023-02-06T05:05:35.186Z,100.00
2023-02-06T05:08:01.701Z,100.00
2023-02-06T05:10:28.108Z,100.00
2023-02-06T05:12:56.055Z,100.00
2023-02-06T05:15:22.752Z,100.00
2023-02-06T05:17:49.285Z,100.00
2023-02-06T05:20:15.865Z,100.00
2023-02-06T05:22:42.272Z,100.00
2023-02-06T05:25:08.671Z,100.00
2023-02-06T05:27:35.413Z,100.00
2023-02-06T05:30:01.889Z,100.00
2023-02-06T05:32:28.298Z,100.00
2023-02-06T05:34:54.688Z,100.00
2023-02-06T05:37:21.136Z,100.00
2023-02-06T05:39:47.506Z,100.00
2023-02-06T05:42:13.931Z,100.00
2023-02-06T05:44:40.271Z,100.00
2023-02-06T05:47:06.691Z,100.00
2023-02-06T05:49:33.074Z,100.00
2023-02-06T05:51:59.539Z,100.00
2023-02-06T05:54:26.004Z,100.00
2023-02-06T05:56:52.402Z,100.00
2023-02-06T05:59:18.798Z,100.00
2023-02-06T06:01:45.161Z,100.00
2023-02-06T06:04:11.529Z,100.00
2023-02-06T06:06:37.946Z,100.00
2023-02-06T06:09:04.540Z,100.00
2023-02-06T06:11:31.835Z,100.00
2023-02-06T06:13:58.175Z,100.00
2023-02-06T06:16:24.886Z,100.00
2023-02-06T06:18:51.395Z,100.00
2023-02-06T06:21:17.950Z,100.00
2023-02-06T06:23:44.446Z,100.00
2023-02-06T06:26:10.890Z,100.00
2023-02-06T06:28:38.746Z,100.00
2023-02-06T06:31:08.431Z,100.00
2023-02-06T06:33:34.915Z,100.00
2023-02-06T06:36:01.315Z,100.00
2023-02-06T06:38:27.782Z,100.00
2023-02-06T06:40:54.152Z,100.00
2023-02-06T06:43:20.623Z,100.00
2023-02-06T06:45:47.116Z,100.00
2023-02-06T06:48:13.662Z,100.00
2023-02-06T06:50:40.200Z,100.00
2023-02-06T06:53:06.748Z,100.00
2023-02-06T06:55:33.260Z,100.00
2023-02-06T06:57:59.797Z,100.00
2023-02-06T07:00:26.252Z,100.00
2023-02-06T07:02:53.075Z,100.00
2023-02-06T07:05:19.478Z,100.00
2023-02-06T07:07:45.903Z,100.00
2023-02-06T07:10:13.062Z,100.00
2023-02-06T07:12:39.466Z,100.00
2023-02-06T07:15:06.636Z,100.00
2023-02-06T07:17:33.116Z,100.00
2023-02-06T07:19:59.492Z,100.00
2023-02-06T07:22:26.055Z,100.00
2023-02-06T07:24:54.435Z,100.00
2023-02-06T07:27:20.987Z,100.00
2023-02-06T07:29:49.185Z,100.00
2023-02-06T07:32:15.691Z,100.00
2023-02-06T07:34:42.089Z,100.00
2023-02-06T07:37:08.507Z,100.00
2023-02-06T07:39:35.191Z,100.00
2023-02-06T07:42:01.623Z,100.00
2023-02-06T07:44:28.022Z,100.00
2023-02-06T07:46:54.492Z,100.00
2023-02-06T07:49:20.864Z,100.00
2023-02-06T07:51:47.949Z,100.00
2023-02-06T07:54:14.505Z,100.00
2023-02-06T07:56:40.984Z,100.00
2023-02-06T07:59:07.386Z,100.00
2023-02-06T08:01:33.947Z,100.00
2023-02-06T08:04:00.485Z,100.00
2023-02-06T08:06:27.250Z,100.00
2023-02-06T08:08:57.042Z,100.00
2023-02-06T08:11:25.999Z,100.00
2023-02-06T08:13:52.382Z,100.00
2023-02-06T08:16:21.020Z,100.00
2023-02-06T08:18:47.669Z,100.00
2023-02-06T08:21:17.046Z,100.00
2023-02-06T08:23:44.312Z,100.00
2023-02-06T08:26:14.337Z,100.00
2023-02-06T08:28:42.238Z,100.00
2023-02-06T08:31:17.708Z,100.00
2023-02-06T08:33:45.424Z,100.00
2023-02-06T08:36:15.046Z,100.00
2023-02-06T08:38:41.480Z,100.00
2023-02-06T08:41:24.968Z,100.00
2023-02-06T08:43:53.834Z,100.00
2023-02-06T08:46:21.959Z,100.00
2023-02-06T08:48:48.706Z,100.00
2023-02-06T08:51:15.372Z,100.00
2023-02-06T08:53:41.726Z,100.00
2023-02-06T08:56:11.165Z,99.96
2023-02-06T08:58:38.708Z,97.61
2023-02-06T09:01:09.626Z,99.54
2023-02-06T09:03:36.243Z,99.38
2023-02-06T09:06:09.834Z,98.27
2023-02-06T09:08:37.146Z,98.37
2023-02-06T09:11:15.710Z,97.09
2023-02-06T09:13:44.127Z,96.56
2023-02-06T09:16:11.757Z,96.10
2023-02-06T09:18:38.794Z,96.09
2023-02-06T09:21:06.883Z,93.66
2023-02-06T09:23:33.590Z,93.52
2023-02-06T09:26:00.141Z,94.30
2023-02-06T09:28:26.545Z,93.14
2023-02-06T09:30:53.059Z,93.68
2023-02-06T09:33:19.506Z,95.18
2023-02-06T09:35:45.875Z,96.04
2023-02-06T09:38:12.304Z,95.06
2023-02-06T09:40:38.895Z,94.69
2023-02-06T09:43:05.622Z,93.22
2023-02-06T09:45:33.276Z,92.78
2023-02-06T09:48:19.295Z,94.13
2023-02-06T09:50:51.691Z,93.23
2023-02-06T09:53:30.493Z,91.03
2023-02-06T09:56:15.567Z,91.91
2023-02-06T09:59:10.233Z,91.67
2023-02-06T10:01:58.049Z,92.47
2023-02-06T10:04:33.647Z,90.35
2023-02-06T10:07:21.308Z,92.91
2023-02-06T10:09:54.243Z,91.85
2023-02-06T10:12:38.853Z,92.64
2023-02-06T10:15:16.520Z,90.77
2023-02-06T10:18:01.380Z,89.77
2023-02-06T10:20:39.039Z,90.62
2023-02-06T10:23:18.830Z,91.72
2023-02-06T10:25:51.623Z,89.80
2023-02-06T10:28:29.918Z,88.53
2023-02-06T10:31:29.759Z,91.60
2023-02-06T10:34:16.864Z,91.61
2023-02-06T10:37:04.719Z,88.90
2023-02-06T10:39:58.506Z,89.64
2023-02-06T10:42:45.589Z,87.48
2023-02-06T10:45:29.949Z,89.15
2023-02-06T10:47:58.255Z,87.84
2023-02-06T10:50:36.988Z,89.84
2023-02-06T10:53:19.669Z,87.45
2023-02-06T10:55:59.866Z,87.88
2023-02-06T10:58:40.932Z,85.24
2023-02-06T11:01:24.677Z,85.90
2023-02-06T11:04:15.323Z,85.48
2023-02-06T11:06:42.552Z,85.75
2023-02-06T11:09:10.630Z,85.82
2023-02-06T11:11:41.073Z,83.70
2023-02-06T11:14:15.750Z,84.64
2023-02-06T11:16:42.752Z,83.88
2023-02-06T11:19:25.560Z,84.83
2023-02-06T11:21:54.009Z,83.13
2023-02-06T11:24:24.189Z,84.53
2023-02-06T11:27:03.807Z,84.87
2023-02-06T11:29:43.120Z,82.73
2023-02-06T11:32:37.558Z,82.53
2023-02-06T11:35:26.535Z,82.57
2023-02-06T11:37:54.706Z,81.19
2023-02-06T11:40:28.276Z,80.09
2023-02-06T11:43:18.358Z,81.57
2023-02-06T11:45:47.376Z,82.08
2023-02-06T11:48:31.279Z,81.58
2023-02-06T11:50:57.711Z,81.76
2023-02-06T11:53:24.071Z,81.03
2023-02-06T11:56:20.872Z,80.63
2023-02-06T11:59:01.408Z,80.60
2023-02-06T12:01:27.874Z,79.93
2023-02-06T12:03:57.837Z,77.89
2023-02-06T12:06:35.495Z,80.09
2023-02-06T12:09:05.895Z,81.63
2023-02-06T12:12:01.823Z,80.66
2023-02-06T12:14:42.308Z,79.72
2023-02-06T12:17:43.183Z,80.07
2023-02-06T12:20:21.283Z,82.55
2023-02-06T12:22:53.844Z,83.68
2023-02-06T12:25:35.915Z,83.82
2023-02-06T12:28:17.408Z,83.76
2023-02-06T12:31:08.366Z,82.85
2023-02-06T12:33:40.328Z,83.59
2023-02-06T12:36:15.865Z,82.71
2023-02-06T12:39:02.104Z,83.39
2023-02-06T12:42:04.208Z,84.34
2023-02-06T12:44:43.104Z,84.10
2023-02-06T12:47:32.249Z,84.04
2023-02-06T12:50:11.279Z,83.17
2023-02-06T12:53:14.147Z,82.01
2023-02-06T12:55:56.098Z,82.01
2023-02-06T12:58:38.828Z,83.85
2023-02-06T13:01:29.208Z,82.35
2023-02-06T13:04:04.545Z,81.46
2023-02-06T13:06:54.973Z,83.17
2023-02-06T13:09:30.590Z,83.18
2023-02-06T13:12:14.937Z,82.29
2023-02-06T13:15:02.630Z,82.39
2023-02-06T13:17:34.831Z,82.60
2023-02-06T13:20:10.445Z,76.66
2023-02-06T13:22:52.004Z,75.89
2023-02-06T13:25:30.298Z,75.62
2023-02-06T13:28:16.583Z,74.00
2023-02-06T13:30:43.123Z,73.76
2023-02-06T13:33:16.244Z,75.70
2023-02-06T13:36:00.847Z,74.32
2023-02-06T13:38:34.964Z,73.56
2023-02-06T13:41:16.637Z,74.58
2023-02-06T13:44:21.206Z,73.61
2023-02-06T13:46:56.564Z,74.31
2023-02-06T13:49:47.300Z,72.71
2023-02-06T13:52:46.673Z,73.25
2023-02-06T13:55:38.712Z,71.32
2023-02-06T13:58:23.836Z,72.59
2023-02-06T14:00:52.623Z,73.30
2023-02-06T14:03:25.593Z,72.82
2023-02-06T14:06:01.812Z,76.11
2023-02-06T14:08:52.765Z,78.75
2023-02-06T14:12:01.798Z,79.69
2023-02-06T14:14:49.371Z,71.89
2023-02-06T14:17:46.302Z,72.69
2023-02-06T14:20:33.183Z,71.29
2023-02-06T14:23:11.456Z,69.91
2023-02-06T14:25:53.195Z,72.70
2023-02-06T14:28:51.320Z,71.67
2023-02-06T14:31:45.041Z,71.04
2023-02-06T14:34:12.456Z,72.73
2023-02-06T14:37:03.976Z,71.33
2023-02-06T14:39:40.015Z,71.78
2023-02-06T14:42:12.063Z,71.38
2023-02-06T14:44:41.252Z,70.70
2023-02-06T14:47:16.610Z,71.60
2023-02-06T14:49:45.243Z,71.20
2023-02-06T14:52:33.307Z,72.49
2023-02-06T14:54:59.813Z,72.41
2023-02-06T14:57:31.478Z,72.55
2023-02-06T15:00:01.944Z,73.30
2023-02-06T15:02:34.638Z,72.61
2023-02-06T15:05:02.657Z,72.52
2023-02-06T15:07:30.535Z,72.70
2023-02-06T15:10:09.309Z,73.55
2023-02-06T15:12:36.368Z,76.27
2023-02-06T15:15:11.691Z,81.98
2023-02-06T15:17:38.748Z,82.92
2023-02-06T15:20:20.345Z,83.22
2023-02-06T15:22:46.896Z,83.69
2023-02-06T15:25:25.832Z,84.37
2023-02-06T15:27:59.774Z,83.64
2023-02-06T15:30:26.518Z,84.16
2023-02-06T15:32:55.999Z,84.91
2023-02-06T15:35:32.969Z,84.30
2023-02-06T15:38:05.539Z,85.39
2023-02-06T15:40:35.402Z,86.77
2023-02-06T15:43:02.938Z,86.76
2023-02-06T15:45:36.266Z,86.98
2023-02-06T15:48:28.477Z,86.37
2023-02-06T15:51:28.782Z,87.70
2023-02-06T15:54:19.698Z,86.97
2023-02-06T15:57:16.172Z,86.67
2023-02-06T15:59:43.157Z,86.79
2023-02-06T16:02:22.595Z,88.19
2023-02-06T16:04:53.016Z,87.96
2023-02-06T16:07:26.052Z,87.44
2023-02-06T16:09:54.716Z,88.08
2023-02-06T16:12:21.917Z,88.49
2023-02-06T16:14:57.266Z,88.93
2023-02-06T16:17:33.006Z,90.76
2023-02-06T16:20:02.929Z,90.54
2023-02-06T16:22:37.726Z,90.48
2023-02-06T16:25:13.296Z,90.72
2023-02-06T16:27:45.204Z,91.94
2023-02-06T16:30:21.555Z,91.72
2023-02-06T16:32:48.111Z,92.48
2023-02-06T16:35:14.595Z,90.86
2023-02-06T16:37:40.995Z,91.86
2023-02-06T16:40:07.626Z,92.39
2023-02-06T16:42:37.235Z,92.67
2023-02-06T16:45:15.513Z,91.31
2023-02-06T16:47:41.897Z,92.53
2023-02-06T16:50:10.466Z,93.15
2023-02-06T16:52:41.035Z,93.91
2023-02-06T16:55:15.624Z,92.56
2023-02-06T16:57:44.829Z,94.65
2023-02-06T17:00:21.206Z,93.48
2023-02-06T17:02:48.615Z,93.84
2023-02-06T17:05:15.520Z,92.33
2023-02-06T17:07:42.563Z,94.60
2023-02-06T17:10:11.975Z,94.91
2023-02-06T17:12:39.520Z,95.58
2023-02-06T17:15:06.482Z,95.58
2023-02-06T17:17:32.895Z,96.59
2023-02-06T17:19:59.456Z,97.95
2023-02-06T17:22:25.988Z,98.57
2023-02-06T17:24:52.464Z,97.11
2023-02-06T17:27:21.310Z,96.91
2023-02-06T17:29:48.530Z,98.20
2023-02-06T17:32:16.178Z,97.66
2023-02-06T17:34:42.966Z,97.87
2023-02-06T17:37:20.329Z,98.19
2023-02-06T17:39:48.635Z,98.34
2023-02-06T17:42:15.383Z,98.59
2023-02-06T17:44:42.612Z,98.39
2023-02-06T17:47:09.393Z,98.96
2023-02-06T17:49:35.924Z,98.70
2023-02-06T17:52:02.602Z,98.27
2023-02-06T17:54:29.019Z,97.75
2023-02-06T17:56:55.568Z,97.99
2023-02-06T17:59:22.110Z,98.43
2023-02-06T18:01:48.884Z,97.52
2023-02-06T18:04:19.488Z,97.62
2023-02-06T18:06:45.925Z,98.76
2023-02-06T18:09:12.422Z,99.06
2023-02-06T18:11:38.840Z,98.21
2023-02-06T18:14:05.234Z,98.40
2023-02-06T18:16:31.783Z,98.74
2023-02-06T18:18:58.450Z,98.48
2023-02-06T18:21:25.495Z,98.09
2023-02-06T18:23:53.032Z,98.19
2023-02-06T18:26:19.423Z,95.76
2023-02-06T18:28:45.806Z,96.94
2023-02-06T18:31:35.279Z,96.34
2023-02-06T18:34:03.945Z,96.58
2023-02-06T18:36:30.381Z,96.75
2023-02-06T18:38:57.220Z,97.31
2023-02-06T18:41:42.154Z,94.94
2023-02-06T18:44:10.022Z,94.87
2023-02-06T18:46:36.791Z,95.20
2023-02-06T18:49:03.750Z,94.66
2023-02-06T18:51:30.793Z,94.75
2023-02-06T18:53:58.310Z,95.62
2023-02-06T18:56:24.922Z,96.25
2023-02-06T18:58:51.577Z,96.05
2023-02-06T19:01:23.257Z,96.41
2023-02-06T19:03:50.732Z,96.74
2023-02-06T19:06:20.557Z,97.43
2023-02-06T19:08:47.145Z,97.40
2023-02-06T19:11:14.192Z,97.25
2023-02-06T19:13:41.039Z,97.93
2023-02-06T19:16:12.999Z,97.84
2023-02-06T19:18:42.250Z,97.64
2023-02-06T19:21:12.116Z,98.23
2023-02-06T19:23:39.442Z,98.74
2023-02-06T19:26:11.841Z,98.09
2023-02-06T19:28:39.704Z,96.74
2023-02-06T19:31:07.369Z,97.17
2023-02-06T19:33:35.828Z,96.63
2023-02-06T19:36:11.200Z,97.54
2023-02-06T19:38:37.934Z,96.88
2023-02-06T19:41:09.306Z,95.72
2023-02-06T19:43:36.220Z,93.26
2023-02-06T19:46:04.653Z,92.83
2023-02-06T19:48:31.174Z,92.39
2023-02-06T19:51:05.953Z,91.22
2023-02-06T19:53:34.174Z,90.71
2023-02-06T19:56:01.614Z,91.09
2023-02-06T19:58:30.945Z,90.56
2023-02-06T20:00:58.321Z,89.66
2023-02-06T20:03:25.339Z,89.40
2023-02-06T20:05:51.755Z,89.51
2023-02-06T20:08:18.262Z,90.59
2023-02-06T20:10:44.688Z,91.17
2023-02-06T20:13:11.217Z,93.18
2023-02-06T20:15:38.998Z,94.15
2023-02-06T20:18:05.627Z,95.19
2023-02-06T20:20:36.032Z,93.78
2023-02-06T20:23:02.630Z,94.09
2023-02-06T20:25:30.021Z,94.30
2023-02-06T20:27:56.623Z,94.43
2023-02-06T20:30:24.199Z,93.95
2023-02-06T20:32:50.641Z,93.86
2023-02-06T20:35:17.070Z,92.78
2023-02-06T20:37:43.488Z,94.05
2023-02-06T20:40:10.203Z,93.68
2023-02-06T20:42:41.999Z,94.14
2023-02-06T20:45:08.548Z,95.57
2023-02-06T20:47:34.959Z,96.36
2023-02-06T20:50:01.813Z,96.34
2023-02-06T20:52:29.513Z,96.66
2023-02-06T20:54:55.906Z,96.27
2023-02-06T20:57:22.989Z,96.80
2023-02-06T20:59:49.578Z,95.76
2023-02-06T21:02:16.172Z,96.23
2023-02-06T21:04:42.667Z,96.27
2023-02-06T21:07:09.106Z,96.10
2023-02-06T21:09:35.579Z,96.27
2023-02-06T21:12:02.168Z,96.15
2023-02-06T21:14:30.002Z,96.57
2023-02-06T21:16:56.926Z,96.71
2023-02-06T21:19:24.946Z,97.08
2023-02-06T21:21:51.315Z,97.79
2023-02-06T21:24:18.366Z,98.04
2023-02-06T21:26:44.835Z,98.40
2023-02-06T21:29:12.943Z,98.27
2023-02-06T21:31:39.761Z,97.85
2023-02-06T21:34:13.832Z,98.61
2023-02-06T21:36:40.712Z,97.72
2023-02-06T21:39:08.351Z,98.21
2023-02-06T21:41:35.774Z,98.28
2023-02-06T21:44:02.755Z,98.35
2023-02-06T21:46:31.815Z,98.41
2023-02-06T21:48:58.231Z,99.04
2023-02-06T21:51:24.722Z,98.97
2023-02-06T21:53:51.426Z,98.97
2023-02-06T21:56:26.540Z,99.48
2023-02-06T21:58:54.141Z,98.49
2023-02-06T22:01:26.255Z,98.37
2023-02-06T22:03:53.350Z,99.02
2023-02-06T22:06:20.757Z,99.38
2023-02-06T22:08:51.873Z,98.78
2023-02-06T22:11:22.162Z,98.74
2023-02-06T22:13:49.515Z,98.58
2023-02-06T22:16:18.832Z,98.78
2023-02-06T22:18:45.407Z,99.42
2023-02-06T22:21:14.432Z,98.79
2023-02-06T22:23:41.545Z,98.08
2023-02-06T22:26:10.026Z,97.51
2023-02-06T22:28:36.723Z,97.71
2023-02-06T22:31:09.123Z,99.05
2023-02-06T22:33:36.411Z,97.84
2023-02-06T22:36:07.958Z,97.77
2023-02-06T22:38:35.215Z,97.87
2023-02-06T22:41:08.865Z,97.44
2023-02-06T22:43:37.062Z,96.79
2023-02-06T22:46:04.445Z,97.77
2023-02-06T22:48:30.910Z,98.04
2023-02-06T22:51:03.231Z,97.98
2023-02-06T22:53:32.298Z,97.48
2023-02-06T22:56:26.439Z,96.86
2023-02-06T22:58:54.663Z,97.16
2023-02-06T23:01:23.740Z,95.95
2023-02-06T23:03:54.774Z,95.98
2023-02-06T23:06:21.559Z,95.34
2023-02-06T23:08:48.221Z,94.58
2023-02-06T23:11:14.778Z,94.24
2023-02-06T23:13:41.583Z,94.63
2023-02-06T23:16:08.622Z,94.55
2023-02-06T23:18:35.739Z,95.65
2023-02-06T23:21:10.737Z,95.80
2023-02-06T23:23:38.414Z,95.30
2023-02-06T23:26:10.104Z,95.67
2023-02-06T23:28:37.203Z,94.96
2023-02-06T23:31:04.101Z,95.43
2023-02-06T23:33:30.569Z,94.75
2023-02-06T23:36:04.714Z,94.42
2023-02-06T23:38:31.206Z,94.12
2023-02-06T23:41:05.832Z,93.77
2023-02-06T23:43:32.675Z,93.95
2023-02-06T23:45:59.142Z,93.90
2023-02-06T23:48:25.607Z,93.83
2023-02-06T23:50:52.172Z,93.12
2023-02-06T23:53:18.617Z,92.91
2023-02-06T23:55:45.046Z,93.68
2023-02-06T23:58:11.384Z,93.22
